sensor_id;sensor_type;location;lat;lon;timestamp;pressure;altitude;pressure_sealevel;temperature;humidity
60055;BME280;45930;53.514;55.904;2023-05-20T00:00:57;49763.88;;;-149.77;100.00
60055;BME280;45930;53.514;55.904;2023-05-20T00:01:58;49633.13;;;-149.77;100.00
60055;BME280;45930;53.514;55.904;2023-05-20T00:02:59;49841.13;;;-149.77;100.00
60055;BME280;45930;53.514;55.904;2023-05-20T00:04:00;49902.53;;;-149.77;100.00
60055;BME280;45930;53.514;55.904;2023-05-20T00:05:01;50019.44;;;-149.77;100.00
60055;BME280;45930;53.514;55.904;2023-05-20T00:06:01;49967.94;;;-149.77;100.00
60055;BME280;45930;53.514;55.904;2023-05-20T00:07:03;50076.88;;;-149.77;100.00
60055;BME280;45930;53.514;55.904;2023-05-20T00:08:04;50152.19;;;-149.77;100.00
60055;BME280;45930;53.514;55.904;2023-05-20T00:09:08;50144.25;;;-149.77;100.00
60055;BME280;45930;53.514;55.904;2023-05-20T00:10:10;50074.91;;;-149.77;100.00
60055;BME280;45930;53.514;55.904;2023-05-20T00:11:11;50088.78;;;-149.77;100.00
60055;BME280;45930;53.514;55.904;2023-05-20T00:12:11;50104.63;;;-149.77;100.00
60055;BME280;45930;53.514;55.904;2023-05-20T00:13:12;49916.41;;;-149.77;100.00
60055;BME280;45930;53.514;55.904;2023-05-20T00:14:13;49789.63;;;-149.77;100.00
60055;BME280;45930;53.514;55.904;2023-05-20T00:15:14;49942.16;;;-149.77;100.00
60055;BME280;45930;53.514;55.904;2023-05-20T00:16:15;49975.84;;;-149.77;100.00
60055;BME280;45930;53.514;55.904;2023-05-20T00:17:16;49930.28;;;-149.77;100.00
60055;BME280;45930;53.514;55.904;2023-05-20T00:18:17;49908.50;;;-149.77;100.00
60055;BME280;45930;53.514;55.904;2023-05-20T00:19:17;49956.03;;;-149.77;100.00
60055;BME280;45930;53.514;55.904;2023-05-20T00:20:18;49985.75;;;-149.77;100.00
60055;BME280;45930;53.514;55.904;2023-05-20T00:21:19;49888.69;;;-149.77;100.00
60055;BME280;45930;53.514;55.904;2023-05-20T00:22:20;49849.06;;;-149.77;100.00
60055;BME280;45930;53.514;55.904;2023-05-20T00:23:21;49898.59;;;-149.77;100.00
60055;BME280;45930;53.514;55.904;2023-05-20T00:24:23;49722.28;;;-149.77;100.00
60055;BME280;45930;53.514;55.904;2023-05-20T00:25:24;49750.00;;;-149.77;100.00
60055;BME280;45930;53.514;55.904;2023-05-20T00:26:24;49777.75;;;-149.77;100.00
60055;BME280;45930;53.514;55.904;2023-05-20T00:27:26;49738.13;;;-149.77;100.00
60055;BME280;45930;53.514;55.904;2023-05-20T00:28:26;49736.13;;;-149.77;100.00
60055;BME280;45930;53.514;55.904;2023-05-20T00:29:27;49674.72;;;-149.77;100.00
60055;BME280;45930;53.514;55.904;2023-05-20T00:30:28;49538.03;;;-149.77;100.00
60055;BME280;45930;53.514;55.904;2023-05-20T00:31:29;49462.75;;;-149.77;100.00
60055;BME280;45930;53.514;55.904;2023-05-20T00:32:29;49349.84;;;-149.77;100.00
60055;BME280;45930;53.514;55.904;2023-05-20T00:33:30;49330.03;;;-149.77;100.00
60055;BME280;45930;53.514;55.904;2023-05-20T00:34:31;49330.03;;;-149.77;100.00
60055;BME280;45930;53.514;55.904;2023-05-20T00:35:32;49197.34;;;-149.77;100.00
60055;BME280;45930;53.514;55.904;2023-05-20T00:36:34;49167.63;;;-149.77;100.00
60055;BME280;45930;53.514;55.904;2023-05-20T00:37:35;49246.84;;;-149.77;100.00
60055;BME280;45930;53.514;55.904;2023-05-20T00:38:36;49258.75;;;-149.77;100.00
60055;BME280;45930;53.514;55.904;2023-05-20T00:39:37;49282.50;;;-149.77;100.00
60055;BME280;45930;53.514;55.904;2023-05-20T00:40:37;49254.78;;;-149.77;100.00
60055;BME280;45930;53.514;55.904;2023-05-20T00:41:38;49231.00;;;-149.77;100.00
60055;BME280;45930;53.514;55.904;2023-05-20T00:42:39;49135.94;;;-149.77;100.00
60055;BME280;45930;53.514;55.904;2023-05-20T00:43:40;49159.69;;;-149.77;100.00
60055;BME280;45930;53.514;55.904;2023-05-20T00:44:41;49195.34;;;-149.77;100.00
60055;BME280;45930;53.514;55.904;2023-05-20T00:45:41;49145.84;;;-149.77;100.00
60055;BME280;45930;53.514;55.904;2023-05-20T00:46:42;49175.53;;;-149.77;100.00
60055;BME280;45930;53.514;55.904;2023-05-20T00:47:43;49133.94;;;-149.77;100.00
60055;BME280;45930;53.514;55.904;2023-05-20T00:48:44;49076.50;;;-149.77;100.00
60055;BME280;45930;53.514;55.904;2023-05-20T00:49:48;49112.16;;;-149.77;100.00
60055;BME280;45930;53.514;55.904;2023-05-20T00:50:50;49060.66;;;-149.77;100.00
60055;BME280;45930;53.514;55.904;2023-05-20T00:51:51;49098.28;;;-149.77;100.00
60055;BME280;45930;53.514;55.904;2023-05-20T00:52:52;49114.16;;;-149.77;100.00
60055;BME280;45930;53.514;55.904;2023-05-20T00:53:55;49108.19;;;-149.77;100.00
60055;BME280;45930;53.514;55.904;2023-05-20T00:54:57;49070.56;;;-149.77;100.00
60055;BME280;45930;53.514;55.904;2023-05-20T00:55:59;49078.50;;;-149.77;100.00
60055;BME280;45930;53.514;55.904;2023-05-20T00:57:00;48991.34;;;-149.77;100.00
60055;BME280;45930;53.514;55.904;2023-05-20T00:58:02;49038.88;;;-149.77;100.00
60055;BME280;45930;53.514;55.904;2023-05-20T00:59:03;49021.06;;;-149.77;100.00
60055;BME280;45930;53.514;55.904;2023-05-20T01:00:06;49013.13;;;-149.77;100.00
60055;BME280;45930;53.514;55.904;2023-05-20T01:01:07;49013.13;;;-149.77;100.00
60055;BME280;45930;53.514;55.904;2023-05-20T01:02:08;49015.09;;;-149.77;100.00
60055;BME280;45930;53.514;55.904;2023-05-20T01:03:09;48963.63;;;-149.77;100.00
60055;BME280;45930;53.514;55.904;2023-05-20T01:04:11;48961.63;;;-149.77;100.00
60055;BME280;45930;53.514;55.904;2023-05-20T01:05:12;48898.25;;;-149.77;100.00
60055;BME280;45930;53.514;55.904;2023-05-20T01:06:13;48910.13;;;-149.77;100.00
60055;BME280;45930;53.514;55.904;2023-05-20T01:07:18;48924.00;;;-149.77;100.00
60055;BME280;45930;53.514;55.904;2023-05-20T01:08:19;48904.19;;;-149.77;100.00
60055;BME280;45930;53.514;55.904;2023-05-20T01:09:20;48925.97;;;-149.77;100.00
60055;BME280;45930;53.514;55.904;2023-05-20T01:10:24;48918.06;;;-149.77;100.00
60055;BME280;45930;53.514;55.904;2023-05-20T01:11:33;48830.91;;;-149.77;100.00
60055;BME280;45930;53.514;55.904;2023-05-20T01:12:45;48850.72;;;-149.77;100.00
60055;BME280;45930;53.514;55.904;2023-05-20T01:13:55;48830.91;;;-149.77;100.00
60055;BME280;45930;53.514;55.904;2023-05-20T01:15:08;48824.97;;;-149.77;100.00
60055;BME280;45930;53.514;55.904;2023-05-20T01:16:10;48817.03;;;-149.77;100.00
60055;BME280;45930;53.514;55.904;2023-05-20T01:17:11;48836.84;;;-149.77;100.00
60055;BME280;45930;53.514;55.904;2023-05-20T01:18:17;48862.59;;;-149.77;100.00
60055;BME280;45930;53.514;55.904;2023-05-20T01:20:30;48799.22;;;-149.77;100.00
60055;BME280;45930;53.514;55.904;2023-05-20T01:21:32;48787.34;;;-149.77;100.00
60055;BME280;45930;53.514;55.904;2023-05-20T01:22:36;48779.41;;;-149.77;100.00
60055;BME280;45930;53.514;55.904;2023-05-20T01:23:37;48753.66;;;-149.77;100.00
60055;BME280;45930;53.514;55.904;2023-05-20T01:24:43;48759.59;;;-149.77;100.00
60055;BME280;45930;53.514;55.904;2023-05-20T01:25:44;48771.50;;;-149.77;100.00
60055;BME280;45930;53.514;55.904;2023-05-20T01:26:45;48785.34;;;-149.77;100.00
60055;BME280;45930;53.514;55.904;2023-05-20T01:27:49;48781.41;;;-149.77;100.00
60055;BME280;45930;53.514;55.904;2023-05-20T01:28:50;48716.03;;;-149.77;100.00
60055;BME280;45930;53.514;55.904;2023-05-20T01:29:51;48731.88;;;-149.77;100.00
60055;BME280;45930;53.514;55.904;2023-05-20T01:30:55;48737.81;;;-149.77;100.00
60055;BME280;45930;53.514;55.904;2023-05-20T01:31:58;48737.81;;;-149.77;100.00
60055;BME280;45930;53.514;55.904;2023-05-20T01:33:04;48725.94;;;-149.77;100.00
60055;BME280;45930;53.514;55.904;2023-05-20T01:34:07;48763.56;;;-149.77;100.00
60055;BME280;45930;53.514;55.904;2023-05-20T01:35:08;48720.00;;;-149.77;100.00
60055;BME280;45930;53.514;55.904;2023-05-20T01:36:10;48741.78;;;-149.77;100.00
60055;BME280;45930;53.514;55.904;2023-05-20T01:37:12;48731.88;;;-149.77;100.00
60055;BME280;45930;53.514;55.904;2023-05-20T01:38:14;48720.00;;;-149.77;100.00
60055;BME280;45930;53.514;55.904;2023-05-20T01:39:17;48721.97;;;-149.77;100.00
60055;BME280;45930;53.514;55.904;2023-05-20T01:40:18;48716.03;;;-149.77;100.00
60055;BME280;45930;53.514;55.904;2023-05-20T01:41:23;48666.53;;;-149.77;100.00
60055;BME280;45930;53.514;55.904;2023-05-20T01:42:25;48712.06;;;-149.77;100.00
60055;BME280;45930;53.514;55.904;2023-05-20T01:43:27;48700.19;;;-149.77;100.00
60055;BME280;45930;53.514;55.904;2023-05-20T01:44:29;48702.19;;;-149.77;100.00
60055;BME280;45930;53.514;55.904;2023-05-20T01:45:30;48688.31;;;-149.77;100.00
60055;BME280;45930;53.514;55.904;2023-05-20T01:46:34;48686.34;;;-149.77;100.00
60055;BME280;45930;53.514;55.904;2023-05-20T01:47:34;48700.19;;;-149.77;100.00
60055;BME280;45930;53.514;55.904;2023-05-20T01:48:35;48696.22;;;-149.77;100.00
60055;BME280;45930;53.514;55.904;2023-05-20T01:49:37;48704.16;;;-149.77;100.00
60055;BME280;45930;53.514;55.904;2023-05-20T01:50:38;48704.16;;;-149.77;100.00
60055;BME280;45930;53.514;55.904;2023-05-20T01:51:39;48723.97;;;-149.77;100.00
60055;BME280;45930;53.514;55.904;2023-05-20T01:52:40;48704.16;;;-149.77;100.00
60055;BME280;45930;53.514;55.904;2023-05-20T01:53:41;48696.22;;;-149.77;100.00
60055;BME280;45930;53.514;55.904;2023-05-20T01:54:42;48712.06;;;-149.77;100.00
60055;BME280;45930;53.514;55.904;2023-05-20T01:55:43;48704.16;;;-149.77;100.00
60055;BME280;45930;53.514;55.904;2023-05-20T01:56:45;48716.03;;;-149.77;100.00
60055;BME280;45930;53.514;55.904;2023-05-20T01:57:46;48729.91;;;-149.77;100.00
60055;BME280;45930;53.514;55.904;2023-05-20T01:58:46;48727.91;;;-149.77;100.00
60055;BME280;45930;53.514;55.904;2023-05-20T01:59:47;48688.31;;;-149.77;100.00
60055;BME280;45930;53.514;55.904;2023-05-20T02:00:48;48708.13;;;-149.77;100.00
60055;BME280;45930;53.514;55.904;2023-05-20T02:01:49;48660.59;;;-149.77;100.00
60055;BME280;45930;53.514;55.904;2023-05-20T02:02:50;48692.28;;;-149.77;100.00
60055;BME280;45930;53.514;55.904;2023-05-20T02:03:51;48690.28;;;-149.77;100.00
60055;BME280;45930;53.514;55.904;2023-05-20T02:04:53;48686.34;;;-149.77;100.00
60055;BME280;45930;53.514;55.904;2023-05-20T02:05:53;48690.28;;;-149.77;100.00
60055;BME280;45930;53.514;55.904;2023-05-20T02:06:54;48670.50;;;-149.77;100.00
60055;BME280;45930;53.514;55.904;2023-05-20T02:07:55;48690.28;;;-149.77;100.00
60055;BME280;45930;53.514;55.904;2023-05-20T02:08:56;48741.78;;;-149.77;100.00
60055;BME280;45930;53.514;55.904;2023-05-20T02:09:57;48706.13;;;-149.77;100.00
60055;BME280;45930;53.514;55.904;2023-05-20T02:10:58;48680.38;;;-149.77;100.00
60055;BME280;45930;53.514;55.904;2023-05-20T02:11:58;48686.34;;;-149.77;100.00
60055;BME280;45930;53.514;55.904;2023-05-20T02:12:59;48708.13;;;-149.77;100.00
60055;BME280;45930;53.514;55.904;2023-05-20T02:14:00;48642.75;;;-149.77;100.00
60055;BME280;45930;53.514;55.904;2023-05-20T02:15:01;48628.91;;;-149.77;100.00
60055;BME280;45930;53.514;55.904;2023-05-20T02:16:02;48613.06;;;-149.77;100.00
60055;BME280;45930;53.514;55.904;2023-05-20T02:17:03;48622.97;;;-149.77;100.00
60055;BME280;45930;53.514;55.904;2023-05-20T02:18:04;48567.50;;;-149.77;100.00
60055;BME280;45930;53.514;55.904;2023-05-20T02:19:05;48563.53;;;-149.77;100.00
60055;BME280;45930;53.514;55.904;2023-05-20T02:20:12;48563.53;;;-149.77;100.00
60055;BME280;45930;53.514;55.904;2023-05-20T02:21:13;48579.38;;;-149.77;100.00
60055;BME280;45930;53.514;55.904;2023-05-20T02:22:14;48597.22;;;-149.77;100.00
60055;BME280;45930;53.514;55.904;2023-05-20T02:23:15;48569.47;;;-149.77;100.00
60055;BME280;45930;53.514;55.904;2023-05-20T02:24:16;48569.47;;;-149.77;100.00
60055;BME280;45930;53.514;55.904;2023-05-20T02:25:17;48609.09;;;-149.77;100.00
60055;BME280;45930;53.514;55.904;2023-05-20T02:26:18;48617.00;;;-149.77;100.00
60055;BME280;45930;53.514;55.904;2023-05-20T02:27:20;48575.41;;;-149.77;100.00
60055;BME280;45930;53.514;55.904;2023-05-20T02:28:20;48551.66;;;-149.77;100.00
60055;BME280;45930;53.514;55.904;2023-05-20T02:29:21;48585.31;;;-149.77;100.00
60055;BME280;45930;53.514;55.904;2023-05-20T02:30:22;48589.28;;;-149.77;100.00
60055;BME280;45930;53.514;55.904;2023-05-20T02:31:23;48601.16;;;-149.77;100.00
60055;BME280;45930;53.514;55.904;2023-05-20T02:32:24;48577.41;;;-149.77;100.00
60055;BME280;45930;53.514;55.904;2023-05-20T02:33:27;48573.44;;;-149.77;100.00
60055;BME280;45930;53.514;55.904;2023-05-20T02:34:28;48599.19;;;-149.77;100.00
60055;BME280;45930;53.514;55.904;2023-05-20T02:35:30;48537.78;;;-149.77;100.00
60055;BME280;45930;53.514;55.904;2023-05-20T02:36:31;48597.22;;;-149.77;100.00
60055;BME280;45930;53.514;55.904;2023-05-20T02:37:32;48626.91;;;-149.77;100.00
60055;BME280;45930;53.514;55.904;2023-05-20T02:38:34;48613.06;;;-149.77;100.00
60055;BME280;45930;53.514;55.904;2023-05-20T02:39:35;48557.59;;;-149.77;100.00
60055;BME280;45930;53.514;55.904;2023-05-20T02:40:36;48585.31;;;-149.77;100.00
60055;BME280;45930;53.514;55.904;2023-05-20T02:41:37;48571.47;;;-149.77;100.00
60055;BME280;45930;53.514;55.904;2023-05-20T02:42:37;48579.38;;;-149.77;100.00
60055;BME280;45930;53.514;55.904;2023-05-20T02:43:38;48599.19;;;-149.77;100.00
60055;BME280;45930;53.514;55.904;2023-05-20T02:44:40;48553.63;;;-149.77;100.00
60055;BME280;45930;53.514;55.904;2023-05-20T02:45:40;48581.38;;;-149.77;100.00
60055;BME280;45930;53.514;55.904;2023-05-20T02:46:41;48553.63;;;-149.77;100.00
60055;BME280;45930;53.514;55.904;2023-05-20T02:47:42;48553.63;;;-149.77;100.00
60055;BME280;45930;53.514;55.904;2023-05-20T02:48:43;48573.44;;;-149.77;100.00
60055;BME280;45930;53.514;55.904;2023-05-20T02:49:44;48535.81;;;-149.77;100.00
60055;BME280;45930;53.514;55.904;2023-05-20T02:50:46;48561.56;;;-149.77;100.00
60055;BME280;45930;53.514;55.904;2023-05-20T02:51:47;48525.91;;;-149.77;100.00
60055;BME280;45930;53.514;55.904;2023-05-20T02:52:48;48527.91;;;-149.77;100.00
60055;BME280;45930;53.514;55.904;2023-05-20T02:53:49;48521.94;;;-149.77;100.00
60055;BME280;45930;53.514;55.904;2023-05-20T02:54:50;48545.72;;;-149.77;100.00
60055;BME280;45930;53.514;55.904;2023-05-20T02:55:52;48525.91;;;-149.77;100.00
60055;BME280;45930;53.514;55.904;2023-05-20T02:56:53;48545.72;;;-149.77;100.00
60055;BME280;45930;53.514;55.904;2023-05-20T02:57:54;48500.16;;;-149.77;100.00
60055;BME280;45930;53.514;55.904;2023-05-20T02:58:55;48502.16;;;-149.77;100.00
60055;BME280;45930;53.514;55.904;2023-05-20T02:59:55;48518.00;;;-149.77;100.00
60055;BME280;45930;53.514;55.904;2023-05-20T03:00:56;48502.16;;;-149.77;100.00
60055;BME280;45930;53.514;55.904;2023-05-20T03:01:57;48537.78;;;-149.77;100.00
60055;BME280;45930;53.514;55.904;2023-05-20T03:02:58;48555.63;;;-149.77;100.00
60055;BME280;45930;53.514;55.904;2023-05-20T03:03:58;48561.56;;;-149.77;100.00
60055;BME280;45930;53.514;55.904;2023-05-20T03:04:59;48581.38;;;-149.77;100.00
60055;BME280;45930;53.514;55.904;2023-05-20T03:06:00;48549.69;;;-149.77;100.00
60055;BME280;45930;53.514;55.904;2023-05-20T03:07:01;48557.59;;;-149.77;100.00
60055;BME280;45930;53.514;55.904;2023-05-20T03:08:11;48567.50;;;-149.77;100.00
60055;BME280;45930;53.514;55.904;2023-05-20T03:09:12;48593.25;;;-149.77;100.00
60055;BME280;45930;53.514;55.904;2023-05-20T03:10:13;48567.50;;;-149.77;100.00
60055;BME280;45930;53.514;55.904;2023-05-20T03:11:14;48575.41;;;-149.77;100.00
60055;BME280;45930;53.514;55.904;2023-05-20T03:12:15;48569.47;;;-149.77;100.00
60055;BME280;45930;53.514;55.904;2023-05-20T03:13:16;48581.38;;;-149.77;100.00
60055;BME280;45930;53.514;55.904;2023-05-20T03:14:17;48581.38;;;-149.77;100.00
60055;BME280;45930;53.514;55.904;2023-05-20T03:15:18;48563.53;;;-149.77;100.00
60055;BME280;45930;53.514;55.904;2023-05-20T03:16:18;48545.72;;;-149.77;100.00
60055;BME280;45930;53.514;55.904;2023-05-20T03:17:22;48543.75;;;-149.77;100.00
60055;BME280;45930;53.514;55.904;2023-05-20T03:18:23;48541.75;;;-149.77;100.00
60055;BME280;45930;53.514;55.904;2023-05-20T03:19:24;48533.84;;;-149.77;100.00
60055;BME280;45930;53.514;55.904;2023-05-20T03:20:24;48529.88;;;-149.77;100.00
60055;BME280;45930;53.514;55.904;2023-05-20T03:21:26;48506.09;;;-149.77;100.00
60055;BME280;45930;53.514;55.904;2023-05-20T03:22:27;48504.13;;;-149.77;100.00
60055;BME280;45930;53.514;55.904;2023-05-20T03:23:28;48468.47;;;-149.77;100.00
60055;BME280;45930;53.514;55.904;2023-05-20T03:24:29;48533.84;;;-149.77;100.00
60055;BME280;45930;53.514;55.904;2023-05-20T03:25:29;48500.16;;;-149.77;100.00
60055;BME280;45930;53.514;55.904;2023-05-20T03:26:30;48440.75;;;-149.77;99.38
60055;BME280;45930;53.514;55.904;2023-05-20T03:27:33;48434.81;;;-149.77;99.59
60055;BME280;45930;53.514;55.904;2023-05-20T03:28:35;48444.72;;;-149.77;100.00
60055;BME280;45930;53.514;55.904;2023-05-20T03:29:36;48411.06;;;-149.77;98.15
60055;BME280;45930;53.514;55.904;2023-05-20T03:30:37;48371.44;;;-149.77;95.34
60055;BME280;45930;53.514;55.904;2023-05-20T03:31:37;48371.44;;;-149.77;95.23
60055;BME280;45930;53.514;55.904;2023-05-20T03:32:38;48391.25;;;-149.77;95.63
60055;BME280;45930;53.514;55.904;2023-05-20T03:33:39;48377.38;;;-149.77;95.94
60055;BME280;45930;53.514;55.904;2023-05-20T03:34:40;48363.53;;;-149.77;94.78
60055;BME280;45930;53.514;55.904;2023-05-20T03:35:44;48335.78;;;-149.77;95.43
60055;BME280;45930;53.514;55.904;2023-05-20T03:36:45;48351.63;;;-149.77;94.83
60055;BME280;45930;53.514;55.904;2023-05-20T03:37:46;48361.53;;;-149.77;94.11
60055;BME280;45930;53.514;55.904;2023-05-20T03:38:47;48351.63;;;-149.77;94.43
60055;BME280;45930;53.514;55.904;2023-05-20T03:39:47;48331.84;;;-149.77;94.26
60055;BME280;45930;53.514;55.904;2023-05-20T03:40:48;48329.84;;;-149.77;94.07
60055;BME280;45930;53.514;55.904;2023-05-20T03:41:49;48355.59;;;-149.77;94.22
60055;BME280;45930;53.514;55.904;2023-05-20T03:42:50;48335.78;;;-149.77;93.90
60055;BME280;45930;53.514;55.904;2023-05-20T03:43:51;48316.00;;;-149.77;92.49
60055;BME280;45930;53.514;55.904;2023-05-20T03:44:52;48312.03;;;-149.77;89.47
60055;BME280;45930;53.514;55.904;2023-05-20T03:45:53;48314.00;;;-149.77;88.66
60055;BME280;45930;53.514;55.904;2023-05-20T03:46:53;48319.94;;;-149.77;89.41
60055;BME280;45930;53.514;55.904;2023-05-20T03:47:54;48306.09;;;-149.77;90.55
60055;BME280;45930;53.514;55.904;2023-05-20T03:48:55;48300.16;;;-149.77;87.47
60055;BME280;45930;53.514;55.904;2023-05-20T03:49:56;48300.16;;;-149.77;88.13
60055;BME280;45930;53.514;55.904;2023-05-20T03:50:57;48308.06;;;-149.77;87.05
60055;BME280;45930;53.514;55.904;2023-05-20T03:51:57;48282.31;;;-149.77;87.20
60055;BME280;45930;53.514;55.904;2023-05-20T03:52:58;48292.22;;;-149.77;89.28
60055;BME280;45930;53.514;55.904;2023-05-20T03:53:59;48268.47;;;-149.77;89.43
60055;BME280;45930;53.514;55.904;2023-05-20T03:55:00;48302.13;;;-149.77;85.80
60055;BME280;45930;53.514;55.904;2023-05-20T03:56:04;48282.31;;;-149.77;85.42
60055;BME280;45930;53.514;55.904;2023-05-20T03:57:04;48298.16;;;-149.77;83.47
60055;BME280;45930;53.514;55.904;2023-05-20T03:58:05;48270.44;;;-149.77;83.85
60055;BME280;45930;53.514;55.904;2023-05-20T03:59:07;48264.50;;;-149.77;83.66
60055;BME280;45930;53.514;55.904;2023-05-20T04:00:08;48284.31;;;-149.77;83.62
60055;BME280;45930;53.514;55.904;2023-05-20T04:01:13;48323.91;;;-149.77;79.29
60055;BME280;45930;53.514;55.904;2023-05-20T04:02:14;48306.09;;;-149.77;80.17
60055;BME280;45930;53.514;55.904;2023-05-20T04:03:15;48337.78;;;-149.77;74.80
60055;BME280;45930;53.514;55.904;2023-05-20T04:04:16;48316.00;;;-149.77;76.95
60055;BME280;45930;53.514;55.904;2023-05-20T04:05:17;48312.03;;;-149.77;79.22
60055;BME280;45930;53.514;55.904;2023-05-20T04:06:18;48280.34;;;-149.77;79.36
60055;BME280;45930;53.514;55.904;2023-05-20T04:07:18;48371.44;;;-149.77;71.03
60055;BME280;45930;53.514;55.904;2023-05-20T04:08:22;48452.63;;;-149.77;68.85
60055;BME280;45930;53.514;55.904;2023-05-20T04:09:26;48472.44;;;-149.77;69.38
60055;BME280;45930;53.514;55.904;2023-05-20T04:10:26;48405.09;;;-149.77;71.31
60055;BME280;45930;53.514;55.904;2023-05-20T04:11:27;48377.38;;;-149.77;71.41
60055;BME280;45930;53.514;55.904;2023-05-20T04:12:28;48434.81;;;-149.77;70.42
60055;BME280;45930;53.514;55.904;2023-05-20T04:13:31;48464.53;;;-149.77;68.00
60055;BME280;45930;53.514;55.904;2023-05-20T04:14:32;48474.41;;;-149.77;68.93
60055;BME280;45930;53.514;55.904;2023-05-20T04:15:36;48474.41;;;-149.77;66.39
60055;BME280;45930;53.514;55.904;2023-05-20T04:16:38;48527.91;;;-149.77;65.83
60055;BME280;45930;53.514;55.904;2023-05-20T04:17:38;48519.97;;;-149.77;65.42
60055;BME280;45930;53.514;55.904;2023-05-20T04:18:40;48632.84;;;-149.77;60.49
60055;BME280;45930;53.514;55.904;2023-05-20T04:19:40;48567.50;;;-149.77;62.78
60055;BME280;45930;53.514;55.904;2023-05-20T04:20:42;48585.31;;;-149.77;63.28
60055;BME280;45930;53.514;55.904;2023-05-20T04:21:42;48601.16;;;-149.77;61.63
60055;BME280;45930;53.514;55.904;2023-05-20T04:22:44;48589.28;;;-149.77;62.75
60055;BME280;45930;53.514;55.904;2023-05-20T04:23:45;48700.19;;;-149.77;57.26
60055;BME280;45930;53.514;55.904;2023-05-20T04:24:45;48660.59;;;-149.77;60.12
60055;BME280;45930;53.514;55.904;2023-05-20T04:25:46;48720.00;;;-149.77;55.54
60055;BME280;45930;53.514;55.904;2023-05-20T04:26:48;48850.72;;;-149.77;51.49
60055;BME280;45930;53.514;55.904;2023-05-20T04:27:49;48890.31;;;-149.77;52.33
60055;BME280;45930;53.514;55.904;2023-05-20T04:28:50;48809.13;;;-149.77;54.13
60055;BME280;45930;53.514;55.904;2023-05-20T04:29:51;48848.72;;;-149.77;53.96
60055;BME280;45930;53.514;55.904;2023-05-20T04:30:59;48821.00;;;-149.77;53.08
60055;BME280;45930;53.514;55.904;2023-05-20T04:32:00;48821.00;;;-149.77;52.67
60055;BME280;45930;53.514;55.904;2023-05-20T04:33:01;48876.47;;;-149.77;52.15
60055;BME280;45930;53.514;55.904;2023-05-20T04:34:05;48809.13;;;-149.77;54.88
60055;BME280;45930;53.514;55.904;2023-05-20T04:35:06;48791.28;;;-149.77;54.72
60055;BME280;45930;53.514;55.904;2023-05-20T04:36:11;48874.47;;;-149.77;51.63
60055;BME280;45930;53.514;55.904;2023-05-20T04:37:15;48882.41;;;-149.77;52.92
60055;BME280;45930;53.514;55.904;2023-05-20T04:38:16;48862.59;;;-149.77;53.44
60055;BME280;45930;53.514;55.904;2023-05-20T04:39:17;48826.94;;;-149.77;53.92
60055;BME280;45930;53.514;55.904;2023-05-20T04:40:20;48882.41;;;-149.77;51.42
60055;BME280;45930;53.514;55.904;2023-05-20T04:41:22;48902.22;;;-149.77;49.10
60055;BME280;45930;53.514;55.904;2023-05-20T04:42:23;48981.44;;;-149.77;49.01
60055;BME280;45930;53.514;55.904;2023-05-20T04:43:24;48910.13;;;-149.77;50.68
60055;BME280;45930;53.514;55.904;2023-05-20T04:44:29;48862.59;;;-149.77;52.60
60055;BME280;45930;53.514;55.904;2023-05-20T04:45:30;48826.94;;;-149.77;54.20
60055;BME280;45930;53.514;55.904;2023-05-20T04:46:32;48896.28;;;-149.77;50.75
60055;BME280;45930;53.514;55.904;2023-05-20T04:47:34;48933.91;;;-149.77;48.49
60055;BME280;45930;53.514;55.904;2023-05-20T04:48:37;48947.75;;;-149.77;48.99
60055;BME280;45930;53.514;55.904;2023-05-20T04:49:39;48896.28;;;-149.77;49.94
60055;BME280;45930;53.514;55.904;2023-05-20T04:50:39;48920.03;;;-149.77;49.68
60055;BME280;45930;53.514;55.904;2023-05-20T04:51:41;48896.28;;;-149.77;50.76
60055;BME280;45930;53.514;55.904;2023-05-20T04:52:43;48876.47;;;-149.77;50.95
60055;BME280;45930;53.514;55.904;2023-05-20T04:53:45;48945.78;;;-149.77;48.34
60055;BME280;45930;53.514;55.904;2023-05-20T04:54:46;48985.41;;;-149.77;47.48
60055;BME280;45930;53.514;55.904;2023-05-20T04:55:48;49019.06;;;-149.77;45.81
60055;BME280;45930;53.514;55.904;2023-05-20T04:56:56;49072.53;;;-149.77;43.32
60055;BME280;45930;53.514;55.904;2023-05-20T04:57:57;49084.44;;;-149.77;44.76
60055;BME280;45930;53.514;55.904;2023-05-20T04:58:57;49084.44;;;-149.77;44.96
60055;BME280;45930;53.514;55.904;2023-05-20T04:59:59;49038.88;;;-149.77;45.66
60055;BME280;45930;53.514;55.904;2023-05-20T05:01:00;49060.66;;;-149.77;46.46
60055;BME280;45930;53.514;55.904;2023-05-20T05:02:01;49056.69;;;-149.77;44.76
60055;BME280;45930;53.514;55.904;2023-05-20T05:03:01;49092.34;;;-149.77;44.82
60055;BME280;45930;53.514;55.904;2023-05-20T05:04:03;49076.50;;;-149.77;45.56
60055;BME280;45930;53.514;55.904;2023-05-20T05:05:04;49023.03;;;-149.77;45.59
60055;BME280;45930;53.514;55.904;2023-05-20T05:06:08;49068.59;;;-149.77;45.58
60055;BME280;45930;53.514;55.904;2023-05-20T05:07:09;49052.75;;;-149.77;45.79
60055;BME280;45930;53.514;55.904;2023-05-20T05:08:10;49058.69;;;-149.77;45.54
60055;BME280;45930;53.514;55.904;2023-05-20T05:09:11;49114.16;;;-149.77;44.18
60055;BME280;45930;53.514;55.904;2023-05-20T05:10:13;49084.44;;;-149.77;44.03
60055;BME280;45930;53.514;55.904;2023-05-20T05:11:15;49106.22;;;-149.77;44.17
60055;BME280;45930;53.514;55.904;2023-05-20T05:12:15;49096.31;;;-149.77;44.29